Time;durP1;ratioP1;P1;durP2;ratioP2;P2;SDS_P1;SDS_P2;PMS_P1;PMS_P2;Temp;Humidity;BMP_temperature;BMP_pressure;BME280_temperature;BME280_humidity;BME280_pressure;Samples;Min_cycle;Max_cycle;Signal;HPM_P1;HPM_P2
2021/12/24 00:00:36;;;;;;;58.35;24.10;;;;;;;-1.45;62.05;100272.25;3153362;28;20063;-64
2021/12/24 00:02:07;;;;;;;;;;;;;;;-1.62;62.14;100274.63;3154541;28;20118;-64
2021/12/24 00:03:41;;;;;;;59.78;23.60;;;;;;;-1.59;62.57;100278.94;3157430;28;19924;-64
2021/12/24 00:05:13;;;;;;;59.10;23.73;;;;;;;-1.55;62.45;100281.53;3157123;28;20105;-64
2021/12/24 00:06:45;;;;;;;62.67;25.30;;;;;;;-1.50;62.38;100279.03;3156841;28;20040;-64
2021/12/24 00:08:16;;;;;;;54.67;25.50;;;;;;;-1.49;62.41;100275.63;3149842;28;20598;-63
2021/12/24 00:09:47;;;;;;;59.95;24.95;;;;;;;-1.52;62.55;100273.03;3155714;28;20105;-64
2021/12/24 00:11:19;;;;;;;59.75;26.25;;;;;;;-1.50;62.41;100274.78;3156785;28;20159;-63
2021/12/24 00:12:58;;;;;;;62.20;25.60;;;;;;;-1.52;62.51;100281.56;3157788;28;20048;-62
2021/12/24 00:14:31;;;;;;;56.63;25.23;;;;;;;-1.54;62.60;100277.25;3154239;28;20525;-62
2021/12/24 00:16:08;;;;;;;65.22;27.23;;;;;;;-1.98;62.81;100211.22;3151086;28;20516;-63
2021/12/24 00:17:40;;;;;;;68.57;27.77;;;;;;;-1.55;62.82;100275.56;3151294;28;20048;-63
2021/12/24 00:19:19;;;;;;;65.35;25.80;;;;;;;-1.52;62.78;100280.69;3156977;28;20572;-63
2021/12/24 00:23:19;;;;;;;65.88;26.75;;;;;;;-2.05;62.73;100194.97;3123825;28;20060;-64
2021/12/24 00:35:50;;;;;;;70.60;28.30;;;;;;;-1.72;63.54;100283.00;3155919;28;20126;-64
2021/12/24 00:37:23;;;;;;;62.85;28.50;;;;;;;-1.71;63.57;100282.19;3157632;28;20079;-64
2021/12/24 00:38:54;;;;;;;70.65;28.42;;;;;;;-1.71;63.44;100280.50;3155743;28;20052;-63
2021/12/24 00:40:26;;;;;;;69.85;28.90;;;;;;;-1.72;63.55;100276.19;3156692;28;20120;-63
2021/12/24 00:41:58;;;;;;;71.07;30.02;;;;;;;-1.81;63.63;100258.22;3157359;28;20048;-63
2021/12/24 00:43:30;;;;;;;65.15;29.48;;;;;;;-1.70;63.68;100281.34;3154712;28;20456;-63
2021/12/24 00:45:01;;;;;;;72.47;30.85;;;;;;;-1.71;63.78;100280.50;3156375;28;20052;-63
2021/12/24 00:46:34;;;;;;;68.53;31.00;;;;;;;-1.71;63.79;100277.94;3155033;28;20104;-63
2021/12/24 00:48:07;;;;;;;68.20;30.70;;;;;;;-1.73;63.77;100263.44;3155903;28;20151;-63
2021/12/24 00:49:38;;;;;;;70.57;32.33;;;;;;;-1.75;63.83;100260.84;3156514;28;20048;-63
2021/12/24 00:51:23;;;;;;;73.60;30.80;;;;;;;-1.73;63.92;100254.06;3155227;28;20048;-63
2021/12/24 00:53:02;;;;;;;74.72;31.02;;;;;;;-1.77;63.88;100249.78;3151546;28;20055;-63
2021/12/24 00:56:24;;;;;;;74.13;33.00;;;;;;;-1.83;64.00;100247.16;3155750;28;20051;-63
2021/12/24 00:57:58;;;;;;;74.50;30.50;;;;;;;-1.83;63.88;100245.47;3152291;28;20504;-62
2021/12/24 00:59:29;;;;;;;75.22;33.53;;;;;;;-1.81;64.25;100244.59;3149369;28;20117;-62
2021/12/24 01:01:01;;;;;;;81.72;34.22;;;;;;;-1.81;63.98;100240.34;3153177;28;20176;-63
2021/12/24 01:02:33;;;;;;;82.53;33.55;;;;;;;-1.83;63.99;100240.34;3155630;28;20043;-63
2021/12/24 01:04:05;;;;;;;82.25;34.47;;;;;;;-1.82;63.94;100241.19;3154301;28;20447;-63
2021/12/24 01:05:38;;;;;;;84.13;34.85;;;;;;;-2.30;64.00;100163.22;3153184;28;20827;-62
2021/12/24 01:07:10;;;;;;;81.05;34.67;;;;;;;-2.50;63.74;100127.25;3155912;28;20449;-63
2021/12/24 01:08:42;;;;;;;86.03;34.70;;;;;;;-1.87;63.85;100223.25;3155812;28;20523;-63
2021/12/24 01:10:16;;;;;;;84.03;32.70;;;;;;;-1.85;63.91;100219.03;3154110;28;20097;-63
2021/12/24 01:11:48;;;;;;;68.97;32.05;;;;;;;-1.87;63.85;100210.50;3155144;28;20414;-63
2021/12/24 01:13:20;;;;;;;72.85;32.03;;;;;;;-1.86;63.96;100198.63;3155816;28;20059;-63
2021/12/24 01:14:51;;;;;;;72.13;32.05;;;;;;;-1.87;64.00;100199.44;3156707;28;20059;-64
2021/12/24 01:16:29;;;;;;;67.10;30.50;;;;;;;-1.88;63.89;100196.03;3154845;28;20044;-63
2021/12/24 01:18:08;;;;;;;75.10;30.92;;;;;;;-1.91;63.88;100196.00;3154289;28;20083;-64
2021/12/24 01:19:42;;;;;;;69.53;30.55;;;;;;;-1.90;63.76;100201.97;3156144;28;20052;-63
2021/12/24 01:21:27;;;;;;;65.20;29.17;;;;;;;-1.90;63.61;100201.97;3155779;28;20234;-63
2021/12/24 01:24:54;;;;;;;63.75;27.63;;;;;;;-1.95;63.64;100193.38;3154082;28;20506;-64
2021/12/24 01:26:36;;;;;;;59.95;26.45;;;;;;;-1.95;63.60;100195.94;3151899;28;20092;-63
2021/12/24 01:28:35;;;;;;;60.85;26.10;;;;;;;-1.96;63.54;100195.06;3154310;28;20432;-63
2021/12/24 01:37:49;;;;;;;67.85;27.58;;;;;;;-1.98;63.67;100193.34;3155066;28;20527;-63
2021/12/24 01:39:24;;;;;;;65.50;26.70;;;;;;;-1.94;63.69;100164.47;3149337;28;20053;-63
2021/12/24 01:41:06;;;;;;;56.28;23.27;;;;;;;-1.95;63.51;100162.75;3151941;28;20095;-63
2021/12/24 01:42:42;;;;;;;55.30;24.40;;;;;;;-1.94;63.42;100161.94;3157365;28;20533;-63
2021/12/24 01:44:13;;;;;;;53.40;23.15;;;;;;;-1.91;63.28;100156.84;3160132;28;20187;-63
2021/12/24 01:45:48;;;;;;;57.17;25.65;;;;;;;-1.87;63.14;100156.03;3154510;28;20071;-62
2021/12/24 01:47:20;;;;;;;55.50;24.55;;;;;;;-1.89;63.15;100143.28;3150589;28;20113;-63
2021/12/24 01:48:52;;;;;;;59.25;24.75;;;;;;;-1.88;63.03;100142.44;3155896;28;20052;-63
2021/12/24 01:50:27;;;;;;;53.22;23.20;;;;;;;-1.87;62.96;100146.69;3155784;28;20492;-63
2021/12/24 01:52:02;;;;;;;60.83;24.45;;;;;;;-1.89;62.96;100139.88;3151395;28;20053;-64
2021/12/24 01:53:36;;;;;;;61.47;25.83;;;;;;;-1.90;63.02;100140.69;3151552;28;20081;-64
2021/12/24 01:55:11;;;;;;;60.97;25.50;;;;;;;-1.90;63.09;100128.78;3154409;28;20044;-63
2021/12/24 01:56:43;;;;;;;60.35;25.63;;;;;;;-1.90;63.04;100126.22;3154536;28;20048;-64
2021/12/24 01:58:19;;;;;;;59.72;24.98;;;;;;;-1.92;63.07;100117.72;3155212;28;20056;-64
2021/12/24 01:59:51;;;;;;;55.40;24.33;;;;;;;-1.92;63.00;100127.09;3159330;28;20120;-65
2021/12/24 02:01:27;;;;;;;52.90;24.43;;;;;;;-1.92;63.10;100127.09;3124174;28;20353;-65
2021/12/24 02:03:01;;;;;;;63.15;24.80;;;;;;;-1.95;63.12;100117.69;3130108;28;24321;-65
2021/12/24 02:04:33;;;;;;;54.75;24.45;;;;;;;-1.92;63.03;100127.09;3127484;28;20052;-65
2021/12/24 02:06:04;;;;;;;59.65;23.05;;;;;;;-1.93;63.00;100117.69;3125722;28;20106;-65
2021/12/24 02:07:36;;;;;;;58.08;24.48;;;;;;;-1.91;63.00;100110.91;3129194;28;20049;-65
2021/12/24 02:09:09;;;;;;;60.58;24.70;;;;;;;-1.91;62.92;100113.47;3126773;28;20049;-64
2021/12/24 02:10:43;;;;;;;61.35;25.13;;;;;;;-1.92;62.66;100116.88;3131043;28;20197;-65
2021/12/24 02:12:16;;;;;;;58.55;25.05;;;;;;;-1.95;62.72;100109.16;3127775;28;20107;-64
2021/12/24 02:13:48;;;;;;;53.92;23.75;;;;;;;-1.97;62.71;100109.16;3131005;28;20053;-65
2021/12/24 02:15:29;;;;;;;58.23;24.90;;;;;;;-2.15;62.95;100086.00;3129979;28;20056;-65
2021/12/24 02:17:31;;;;;;;66.10;25.45;;;;;;;-2.02;62.84;100103.13;3129572;28;20057;-64
2021/12/24 02:28:21;;;;;;;64.32;26.35;;;;;;;-2.20;63.13;100102.94;3129658;28;20045;-64
2021/12/24 02:29:53;;;;;;;56.58;26.67;;;;;;;-2.20;63.13;100106.34;3121328;28;20349;-64
2021/12/24 02:31:28;;;;;;;62.55;25.42;;;;;;;-2.17;63.21;100098.72;3119630;28;20338;-64
2021/12/24 02:33:01;;;;;;;66.88;26.60;;;;;;;-2.20;63.11;100083.38;3121321;28;20131;-64
2021/12/24 02:34:33;;;;;;;66.53;26.73;;;;;;;-2.83;63.22;99983.22;3121819;28;20053;-63
2021/12/24 02:36:07;;;;;;;64.07;27.25;;;;;;;-2.19;63.19;100102.09;3120006;28;20140;-64
2021/12/24 02:37:39;;;;;;;70.68;28.67;;;;;;;-2.20;63.30;100092.75;3114614;28;20107;-64
2021/12/24 02:39:11;;;;;;;71.90;29.95;;;;;;;-2.21;63.25;100093.59;3123806;28;20051;-64
2021/12/24 02:40:44;;;;;;;66.15;26.85;;;;;;;-2.21;63.31;100085.94;3123204;28;20152;-64
2021/12/24 02:42:18;;;;;;;57.72;25.73;;;;;;;-2.22;63.30;100077.41;3118833;28;20219;-63
2021/12/24 02:43:51;;;;;;;60.38;26.52;;;;;;;-2.23;63.46;100077.41;3121584;28;20514;-63
2021/12/24 02:45:25;;;;;;;65.80;27.60;;;;;;;-2.21;63.23;100070.63;3120245;28;20185;-64
2021/12/24 02:47:12;;;;;;;56.17;26.00;;;;;;;-2.22;63.15;100079.09;3123085;28;20326;-65
2021/12/24 02:49:07;;;;;;;64.28;26.75;;;;;;;-2.26;63.40;100078.22;3122842;28;20573;-65
2021/12/24 02:54:22;;;;;;;61.28;25.88;;;;;;;-2.56;63.41;100043.03;3123516;28;20060;-64
2021/12/24 02:55:53;;;;;;;52.45;25.27;;;;;;;-2.29;63.42;100085.84;3123964;28;20063;-63
2021/12/24 02:57:28;;;;;;;56.78;25.73;;;;;;;-2.28;63.31;100087.53;3122765;28;20057;-64
2021/12/24 02:59:02;;;;;;;61.50;26.58;;;;;;;-2.26;63.33;100090.13;3125099;28;20105;-63
2021/12/24 03:00:34;;;;;;;59.53;25.90;;;;;;;-2.27;63.50;100083.31;3133719;28;20131;-64
2021/12/24 03:02:06;;;;;;;72.75;26.05;;;;;;;-2.26;63.35;100085.88;3144071;28;20055;-64
2021/12/24 03:03:38;;;;;;;55.30;24.75;;;;;;;-2.66;63.18;100005.50;3149954;28;20062;-66
2021/12/24 03:05:12;;;;;;;62.13;26.27;;;;;;;-2.26;63.30;100064.59;3147133;28;20048;-64
2021/12/24 03:06:46;;;;;;;64.25;26.55;;;;;;;-2.26;63.38;100077.38;3148998;28;20059;-64
2021/12/24 03:08:20;;;;;;;58.78;25.38;;;;;;;-2.25;63.39;100081.63;3147653;28;20048;-64
2021/12/24 03:09:51;;;;;;;;;;;;;;;-2.44;63.41;100083.09;3148907;28;20044;-65
2021/12/24 03:11:25;;;;;;;59.97;24.52;;;;;;;-2.45;63.77;100074.59;3146832;28;19924;-65
2021/12/24 03:12:56;;;;;;;;;;;;;;;-2.56;63.79;100077.03;3148034;28;20093;-65
2021/12/24 03:14:29;;;;;;;62.88;23.65;;;;;;;-2.49;63.86;100077.94;3145632;28;20535;-65
2021/12/24 03:16:01;;;;;;;;;;;;;;;-2.58;63.76;100090.59;3149245;28;20223;-64
2021/12/24 03:17:33;;;;;;;60.63;25.25;;;;;;;-2.52;63.88;100080.44;3145822;28;20019;-63
2021/12/24 03:19:07;;;;;;;66.55;25.63;;;;;;;-3.08;63.80;99973.56;3146238;28;20131;-63
2021/12/24 03:20:39;;;;;;;58.17;26.63;;;;;;;-2.45;63.59;100063.56;3146218;28;20684;-62
2021/12/24 03:22:26;;;;;;;62.80;26.75;;;;;;;-2.40;63.59;100078.03;3147212;28;20052;-63
2021/12/24 03:25:49;;;;;;;59.28;24.95;;;;;;;-2.42;63.72;100089.94;3145927;28;20453;-63
2021/12/24 03:27:22;;;;;;;62.85;27.70;;;;;;;-2.38;63.78;100095.94;3146435;28;20052;-62
2021/12/24 03:28:54;;;;;;;61.42;25.95;;;;;;;-2.40;63.47;100088.25;3147376;28;20058;-62
2021/12/24 03:30:27;;;;;;;62.72;26.80;;;;;;;-2.53;63.73;100055.81;3147769;28;20047;-63
2021/12/24 03:31:59;;;;;;;57.83;25.88;;;;;;;-2.47;63.85;100060.97;3147154;28;20059;-63
2021/12/24 03:33:31;;;;;;;60.38;25.92;;;;;;;-2.38;63.69;100065.31;3143000;28;20121;-65
2021/12/24 03:35:05;;;;;;;63.50;28.40;;;;;;;-2.37;63.76;100067.88;3146349;28;20121;-65
2021/12/24 03:36:37;;;;;;;63.55;26.25;;;;;;;-2.37;63.59;100056.81;3148261;28;20048;-64
2021/12/24 03:38:09;;;;;;;63.92;27.05;;;;;;;-2.39;63.64;100044.06;3141769;28;20073;-65
2021/12/24 03:39:43;;;;;;;66.82;28.08;;;;;;;-2.37;63.71;100044.91;3147767;28;20158;-64
2021/12/24 03:41:15;;;;;;;65.03;28.80;;;;;;;-2.38;63.60;100050.03;3148391;28;20366;-64
2021/12/24 03:42:47;;;;;;;69.38;29.10;;;;;;;-2.41;63.75;100053.38;3146411;28;20048;-65
2021/12/24 03:44:19;;;;;;;65.10;28.60;;;;;;;-2.40;63.68;100061.88;3143314;28;20055;-65
2021/12/24 03:46:00;;;;;;;62.90;26.35;;;;;;;-2.43;63.85;100067.81;3147473;28;20493;-65
2021/12/24 03:47:37;;;;;;;60.78;26.25;;;;;;;-2.44;63.78;100055.06;3146736;28;20056;-65
2021/12/24 03:49:17;;;;;;;63.38;27.77;;;;;;;-2.45;63.88;100038.91;3146527;28;20596;-64
2021/12/24 03:50:58;;;;;;;61.05;27.52;;;;;;;-2.47;63.83;100042.28;3146383;28;20055;-64
2021/12/24 03:56:12;;;;;;;59.50;25.15;;;;;;;-2.54;64.05;100036.25;3148466;28;20220;-65
2021/12/24 03:57:43;;;;;;;57.50;23.95;;;;;;;-2.55;63.92;100032.81;3148892;28;20052;-64
2021/12/24 03:59:16;;;;;;;56.10;24.77;;;;;;;-2.54;63.86;100043.91;3146166;28;20509;-65
2021/12/24 04:00:48;;;;;;;59.35;25.77;;;;;;;-2.57;64.04;100036.22;3144703;28;20170;-64
2021/12/24 04:02:21;;;;;;;54.17;23.95;;;;;;;-2.61;63.87;100037.00;3143566;28;20154;-65
2021/12/24 04:03:53;;;;;;;53.60;22.95;;;;;;;-2.72;64.06;100013.06;3148079;28;20051;-65
2021/12/24 04:05:26;;;;;;;60.13;25.02;;;;;;;-2.66;64.11;100039.50;3141051;28;20053;-65
2021/12/24 04:06:57;;;;;;;51.28;23.98;;;;;;;-2.68;63.93;100027.59;3147264;28;20048;-66
2021/12/24 04:08:30;;;;;;;48.85;21.58;;;;;;;-2.69;63.97;100023.31;3144494;28;20889;-65
2021/12/24 04:10:09;;;;;;;53.80;21.38;;;;;;;-2.73;63.91;100027.50;3146806;28;20060;-65
2021/12/24 04:11:43;;;;;;;50.08;21.90;;;;;;;-2.76;63.98;100027.47;3145147;28;20097;-64
2021/12/24 04:13:15;;;;;;;;;;;;;;;-2.97;64.04;100011.06;3147829;28;20485;-65
2021/12/24 04:14:47;;;;;;;46.33;20.17;;;;;;;-2.97;64.32;100005.13;3146383;28;20383;-65
2021/12/24 04:16:19;;;;;;;50.05;21.00;;;;;;;-2.97;64.26;100003.44;3146126;28;20776;-65
2021/12/24 04:17:51;;;;;;;60.65;20.58;;;;;;;-3.01;64.05;99999.16;3145507;28;20048;-64
2021/12/24 04:24:48;;;;;;;49.53;21.20;;;;;;;-2.98;64.02;100001.72;3146013;28;20499;-63
2021/12/24 04:24:58;;;;;;;42.67;18.60;;;;;;;-3.11;64.43;99989.66;3146101;28;20052;-63
2021/12/24 04:26:30;;;;;;;42.65;19.35;;;;;;;-3.08;64.44;99992.25;3146797;28;20516;-63
2021/12/24 04:28:04;;;;;;;44.92;19.17;;;;;;;-3.07;64.35;100000.75;3144559;28;20402;-62
2021/12/24 04:29:36;;;;;;;46.10;19.80;;;;;;;-3.13;64.29;100004.09;3146307;28;20043;-62
2021/12/24 04:31:08;;;;;;;54.00;18.88;;;;;;;-3.09;64.23;99990.53;3147597;28;20319;-63
2021/12/24 04:33:00;;;;;;;39.83;19.10;;;;;;;-3.10;64.35;99993.09;3144485;28;20552;-63
2021/12/24 04:34:34;;;;;;;43.72;18.65;;;;;;;-3.17;64.29;99997.22;3146724;28;20134;-63
2021/12/24 04:36:21;;;;;;;45.38;19.67;;;;;;;-3.18;64.71;99987.03;3146361;28;20705;-63
2021/12/24 04:39:53;;;;;;;42.28;19.60;;;;;;;-3.23;64.62;99979.31;3146297;28;20044;-63
2021/12/24 04:52:45;;;;;;;49.15;21.67;;;;;;;-3.28;65.19;99978.41;3146377;28;20044;-62
2021/12/24 05:02:01;;;;;;;39.17;17.33;;;;;;;-3.39;65.40;99979.94;3092200;28;20136;-63
2021/12/24 05:03:35;;;;;;;37.05;16.80;;;;;;;-3.41;65.48;99977.38;3100225;28;20486;-63
2021/12/24 05:05:18;;;;;;;39.67;17.02;;;;;;;-3.40;65.27;99976.56;3145542;28;20473;-63
2021/12/24 05:06:56;;;;;;;40.90;16.65;;;;;;;-3.43;65.47;99981.59;3145203;28;20541;-63
2021/12/24 05:08:38;;;;;;;38.65;16.90;;;;;;;-3.38;65.41;99984.19;3147735;28;20052;-63
2021/12/24 05:10:09;;;;;;;38.17;15.98;;;;;;;-3.39;65.28;99980.81;3145813;28;20054;-63
2021/12/24 05:11:41;;;;;;;39.85;17.20;;;;;;;-3.38;65.16;99977.41;3146469;28;20640;-62
2021/12/24 05:13:15;;;;;;;35.50;15.43;;;;;;;-3.41;65.23;99968.88;3146358;28;20063;-63
2021/12/24 05:14:48;;;;;;;;;;;;;;;-3.52;65.70;99982.31;3146280;28;20146;-62
2021/12/24 05:16:24;;;;;;;40.30;16.60;;;;;;;-3.46;65.54;99994.25;3145490;28;20438;-63
2021/12/24 05:18:09;;;;;;;41.47;16.98;;;;;;;-3.40;65.43;99988.41;3145356;28;20465;-63
2021/12/24 05:21:37;;;;;;;35.13;17.02;;;;;;;-3.34;65.36;100003.75;3145801;28;20052;-62
2021/12/24 05:23:09;;;;;;;36.00;17.38;;;;;;;-3.32;65.20;100010.59;3145872;28;20071;-63
2021/12/24 05:24:41;;;;;;;40.80;18.58;;;;;;;-3.30;65.15;100003.84;3146883;28;20055;-62
2021/12/24 05:26:14;;;;;;;50.83;22.83;;;;;;;-3.27;65.18;99996.25;3145698;28;20062;-61
2021/12/24 05:27:46;;;;;;;49.13;21.77;;;;;;;-3.25;65.19;99996.28;3145975;28;20059;-61
2021/12/24 05:29:18;;;;;;;47.72;20.08;;;;;;;-3.24;65.18;99990.34;3147278;28;20117;-61
2021/12/24 05:30:52;;;;;;;41.22;18.92;;;;;;;-3.24;65.14;99997.97;3144095;28;20058;-61
2021/12/24 05:32:23;;;;;;;41.03;18.58;;;;;;;-3.27;65.32;99998.78;3147012;28;20504;-62
2021/12/24 05:33:56;;;;;;;37.85;17.02;;;;;;;-3.21;64.94;100000.56;3146301;28;20058;-62
2021/12/24 05:35:28;;;;;;;49.60;19.50;;;;;;;-3.21;65.08;100003.13;3145686;28;20413;-62
2021/12/24 05:37:01;;;;;;;44.22;19.15;;;;;;;-3.21;65.05;100001.41;3140124;28;20055;-62
2021/12/24 05:38:33;;;;;;;46.30;19.65;;;;;;;-3.22;65.04;99991.22;3146074;28;20044;-61
2021/12/24 05:40:06;;;;;;;42.03;19.15;;;;;;;-3.18;64.97;100002.31;3145802;28;20043;-62
2021/12/24 05:41:38;;;;;;;51.28;19.60;;;;;;;-3.19;65.02;100011.66;3147325;28;20113;-62
2021/12/24 05:43:10;;;;;;;43.15;20.02;;;;;;;-3.18;65.15;100023.53;3145035;28;20059;-61
2021/12/24 05:44:42;;;;;;;42.47;14.82;;;;;;;-3.22;65.05;100017.56;3147033;28;20326;-61
2021/12/24 05:46:15;;;;;;;43.88;18.77;;;;;;;-3.18;65.21;100008.25;3141870;28;20047;-62
2021/12/24 05:47:47;;;;;;;41.83;17.88;;;;;;;-3.17;65.05;100011.66;3146546;28;20289;-62
2021/12/24 05:49:19;;;;;;;51.03;22.00;;;;;;;-3.14;65.18;100012.53;3145359;28;20052;-63
2021/12/24 05:50:51;;;;;;;47.28;22.15;;;;;;;-3.12;65.01;100012.56;3143176;28;20066;-63
2021/12/24 05:52:24;;;;;;;47.45;21.85;;;;;;;-3.12;65.04;100000.69;3140648;28;20129;-62
2021/12/24 05:53:56;;;;;;;45.05;21.10;;;;;;;-3.08;65.00;99999.88;3139986;28;20048;-62
2021/12/24 05:55:27;;;;;;;44.33;20.08;;;;;;;-3.09;65.00;99990.53;3138900;28;20248;-62
2021/12/24 05:56:59;;;;;;;41.65;19.35;;;;;;;-3.06;65.03;100002.47;3138949;28;20056;-61
2021/12/24 05:58:31;;;;;;;49.85;22.17;;;;;;;-3.03;64.97;100016.09;3141190;28;20045;-62
2021/12/24 06:00:06;;;;;;;50.38;21.45;;;;;;;-3.02;65.08;100017.81;3140689;28;20055;-62
2021/12/24 06:01:39;;;;;;;59.72;26.27;;;;;;;-2.99;64.97;100017.88;3139051;28;20390;-61
2021/12/24 06:03:11;;;;;;;57.47;28.75;;;;;;;-2.96;65.10;100011.94;3142638;28;20223;-61
2021/12/24 06:04:43;;;;;;;54.50;29.10;;;;;;;-2.94;65.06;100001.78;3142581;28;20053;-62
2021/12/24 06:06:15;;;;;;;59.60;31.25;;;;;;;-2.93;65.05;100004.31;3142261;28;20084;-62
2021/12/24 06:07:47;;;;;;;63.65;33.65;;;;;;;-2.89;65.02;100007.78;3141816;28;20554;-62
2021/12/24 06:09:19;;;;;;;54.13;28.98;;;;;;;-2.86;65.00;100007.81;3144276;28;20420;-62
2021/12/24 06:10:51;;;;;;;50.70;25.83;;;;;;;-2.83;64.92;100012.97;3142748;28;20056;-63
2021/12/24 06:12:23;;;;;;;48.90;23.60;;;;;;;-2.81;65.03;100007.03;3140583;28;20055;-62
2021/12/24 06:13:56;;;;;;;49.92;23.65;;;;;;;-2.80;65.03;100000.25;3143846;28;20048;-61
2021/12/24 06:15:28;;;;;;;58.20;25.08;;;;;;;-2.75;65.11;100001.16;3143350;28;20040;-63
2021/12/24 06:17:04;;;;;;;51.15;25.08;;;;;;;-2.68;65.04;99995.28;3145078;28;20052;-65
2021/12/24 06:18:40;;;;;;;57.22;26.27;;;;;;;-2.63;64.96;100002.97;3145848;28;20505;-63
2021/12/24 06:20:12;;;;;;;52.45;26.10;;;;;;;-2.58;65.03;100007.28;3144618;28;20585;-65
2021/12/24 06:21:47;;;;;;;60.63;28.55;;;;;;;-2.53;65.06;100003.09;3140362;28;20554;-63
2021/12/24 06:23:21;;;;;;;66.25;29.10;;;;;;;-2.44;65.14;100004.06;3143073;28;20049;-65
2021/12/24 06:24:53;;;;;;;59.70;28.10;;;;;;;-2.38;65.27;100004.97;3145292;28;20052;-64
2021/12/24 06:26:26;;;;;;;58.55;27.52;;;;;;;-2.30;65.22;99993.16;3146142;28;20056;-63
2021/12/24 06:27:58;;;;;;;55.15;26.65;;;;;;;-2.17;65.19;99999.22;3145810;28;20516;-64
2021/12/24 06:29:31;;;;;;;58.38;27.83;;;;;;;-2.09;65.12;99992.50;3152119;28;20600;-65
2021/12/24 06:31:03;;;;;;;60.13;27.77;;;;;;;-1.99;65.19;99995.13;3156054;28;20101;-65
2021/12/24 06:32:36;;;;;;;58.20;26.75;;;;;;;-1.87;64.85;99997.78;3155152;28;20045;-64
2021/12/24 06:34:08;;;;;;;65.28;29.30;;;;;;;-1.84;64.78;99983.34;3152232;28;20053;-67
2021/12/24 06:35:40;;;;;;;68.53;31.85;;;;;;;-1.84;64.57;99968.03;3149607;28;20055;-68
2021/12/24 06:37:12;;;;;;;76.22;34.22;;;;;;;-1.72;64.32;99976.63;3153765;28;20044;-68
2021/12/24 06:38:44;;;;;;;70.22;33.67;;;;;;;-1.65;64.36;99986.91;3152446;28;20066;-70
2021/12/24 06:40:16;;;;;;;70.30;32.17;;;;;;;-1.60;64.11;99992.03;3153417;28;20618;-66
2021/12/24 06:41:47;;;;;;;66.00;32.13;;;;;;;-1.47;64.00;99995.53;3151712;28;20998;-67
2021/12/24 06:43:19;;;;;;;68.45;31.45;;;;;;;-1.40;63.91;99995.56;3151464;28;20109;-67
2021/12/24 06:44:52;;;;;;;79.50;35.40;;;;;;;-1.29;63.81;99990.53;3151884;28;20105;-67
2021/12/24 06:46:25;;;;;;;67.95;30.55;;;;;;;-1.23;63.82;99977.78;3155825;28;20049;-66
2021/12/24 06:48:00;;;;;;;65.82;30.25;;;;;;;-1.11;63.62;99986.38;3151633;28;20124;-73
2021/12/24 06:49:32;;;;;;;70.28;29.75;;;;;;;-1.08;63.50;99978.72;3152953;28;20056;-71
2021/12/24 06:51:03;;;;;;;68.65;31.17;;;;;;;-1.04;63.38;99972.78;3152278;28;20539;-71
2021/12/24 06:52:35;;;;;;;69.15;32.13;;;;;;;-1.00;63.08;99979.63;3154419;28;20040;-70
2021/12/24 06:54:09;;;;;;;71.28;32.47;;;;;;;-0.99;62.95;99971.94;3156912;28;20044;-70
2021/12/24 06:55:41;;;;;;;70.57;33.45;;;;;;;-0.94;62.96;99975.38;3157508;28;20069;-70
2021/12/24 06:57:15;;;;;;;70.70;34.17;;;;;;;-0.88;62.90;99972.00;3157003;28;20098;-70
2021/12/24 06:58:47;;;;;;;76.93;35.22;;;;;;;-0.79;62.62;99964.38;3157952;28;20531;-70
2021/12/24 07:00:22;;;;;;;75.63;35.13;;;;;;;-0.67;62.69;99962.69;3158100;28;20457;-70
2021/12/24 07:01:54;;;;;;;80.50;35.13;;;;;;;-0.54;62.72;99956.75;3156776;28;20125;-68
2021/12/24 07:03:27;;;;;;;80.43;35.88;;;;;;;-0.41;62.53;99966.19;3157112;28;20686;-76
2021/12/24 07:04:59;;;;;;;75.85;36.30;;;;;;;-0.30;62.27;99966.19;3156788;28;20043;-66
2021/12/24 07:06:31;;;;;;;106.38;43.25;;;;;;;-0.14;62.12;99956.84;3155897;28;20052;-64
2021/12/24 07:08:03;;;;;;;92.45;37.00;;;;;;;-0.06;61.55;99956.00;3154416;28;20048;-65
2021/12/24 07:09:41;;;;;;;78.10;36.63;;;;;;;0.12;61.68;99960.25;3155984;28;20044;-62
2021/12/24 07:11:13;;;;;;;65.05;31.35;;;;;;;0.26;61.15;99954.25;3152988;28;20120;-63
2021/12/24 07:12:45;;;;;;;70.18;32.90;;;;;;;0.40;60.69;99958.50;3157158;28;20055;-62
2021/12/24 07:14:17;;;;;;;62.10;30.00;;;;;;;0.52;60.22;99952.50;3154892;28;20105;-63
2021/12/24 07:15:49;;;;;;;65.30;30.27;;;;;;;0.62;60.05;99954.22;3155069;28;20048;-63
2021/12/24 07:17:21;;;;;;;70.93;31.90;;;;;;;0.74;59.64;99962.72;3155908;28;20427;-64
2021/12/24 07:18:54;;;;;;;81.95;34.63;;;;;;;0.85;59.18;99961.81;3156728;28;20048;-63
2021/12/24 07:20:26;;;;;;;71.93;32.50;;;;;;;0.89;59.01;99963.53;3154725;28;20504;-64
2021/12/24 07:21:58;;;;;;;77.57;33.50;;;;;;;0.99;58.79;99955.81;3155525;28;20370;-63
2021/12/24 07:23:30;;;;;;;72.53;30.95;;;;;;;1.06;58.73;99952.34;3154932;28;20129;-63
2021/12/24 07:25:04;;;;;;;78.18;33.42;;;;;;;1.17;58.42;99949.75;3157589;28;20199;-63
2021/12/24 07:26:36;;;;;;;74.28;32.90;;;;;;;1.25;57.89;99955.69;3154900;28;20055;-64
2021/12/24 07:28:08;;;;;;;95.70;38.72;;;;;;;1.21;57.52;99928.34;3155947;28;20059;-63
2021/12/24 07:29:40;;;;;;;83.70;35.70;;;;;;;1.35;57.05;99947.09;3156132;28;20044;-67
2021/12/24 07:31:12;;;;;;;76.03;33.45;;;;;;;1.38;56.57;99931.66;3156305;28;20121;-67
2021/12/24 07:32:44;;;;;;;64.47;30.00;;;;;;;1.42;56.37;99941.06;3150337;28;20052;-67
2021/12/24 07:34:17;;;;;;;63.30;26.52;;;;;;;1.45;55.96;99943.63;3156308;28;20047;-62
2021/12/24 07:35:49;;;;;;;63.72;28.88;;;;;;;1.46;56.04;99952.16;3156591;28;20671;-63
2021/12/24 07:37:21;;;;;;;57.63;26.75;;;;;;;1.49;55.79;99950.44;3158521;28;20048;-62
2021/12/24 07:38:53;;;;;;;59.92;28.48;;;;;;;1.50;55.74;99941.00;3155915;28;20048;-62
2021/12/24 07:40:26;;;;;;;71.40;30.88;;;;;;;1.51;55.54;99941.03;3152941;28;20056;-61
2021/12/24 07:41:58;;;;;;;73.05;32.25;;;;;;;1.50;55.52;99939.28;3149046;28;20633;-63
2021/12/24 07:43:30;;;;;;;68.47;30.92;;;;;;;1.52;55.31;99939.31;3156285;28;20746;-62
2021/12/24 07:45:02;;;;;;;71.53;30.48;;;;;;;1.54;55.32;99940.16;3156337;28;20109;-63
2021/12/24 07:46:39;;;;;;;57.97;27.80;;;;;;;1.50;55.12;99947.00;3156237;28;20044;-63
2021/12/24 07:48:13;;;;;;;66.35;28.77;;;;;;;1.49;54.95;99949.59;3156272;28;20044;-62
2021/12/24 07:49:48;;;;;;;67.93;30.63;;;;;;;1.44;54.79;99956.44;3152393;28;20109;-62
2021/12/24 07:53:11;;;;;;;65.15;28.30;;;;;;;1.35;54.67;99967.59;3155848;28;20044;-62
2021/12/24 07:54:46;;;;;;;59.03;28.80;;;;;;;1.39;54.80;99965.88;3155882;28;20124;-62
2021/12/24 07:56:18;;;;;;;68.22;30.35;;;;;;;1.38;54.72;99952.19;3156355;28;20509;-62
2021/12/24 07:57:52;;;;;;;68.07;31.17;;;;;;;1.39;54.61;99950.47;3155108;28;20051;-61
2021/12/24 07:59:23;;;;;;;;;;;;;;;1.27;54.98;99939.44;3157005;28;20039;-64
2021/12/24 08:00:55;;;;;;;59.95;26.48;;;;;;;1.40;54.99;99945.34;3154445;28;20310;-64
2021/12/24 08:02:29;;;;;;;62.40;28.27;;;;;;;1.55;54.56;99939.28;3157202;28;20048;-63
2021/12/24 08:04:01;;;;;;;;;;;;;;;1.47;54.70;99939.31;3154263;28;20408;-64
2021/12/24 08:05:39;;;;;;;68.63;29.67;;;;;;;1.60;54.47;99945.25;3153110;28;19920;-64
2021/12/24 08:07:11;;;;;;;71.72;31.65;;;;;;;1.78;54.29;99957.09;3155922;28;20051;-63
2021/12/24 08:08:43;;;;;;;72.88;32.70;;;;;;;1.60;53.98;99904.16;3155812;28;20052;-64
2021/12/24 08:10:16;;;;;;;69.95;31.60;;;;;;;1.91;54.03;99935.59;3154164;28;20044;-65
2021/12/24 08:11:47;;;;;;;74.25;34.28;;;;;;;2.05;53.78;99935.50;3150855;28;20044;-69
2021/12/24 08:13:19;;;;;;;72.60;33.80;;;;;;;2.18;53.51;99942.22;3154369;28;20044;-69
2021/12/24 08:14:51;;;;;;;76.53;34.10;;;;;;;2.27;53.40;99942.13;3155537;28;20051;-69
2021/12/24 08:16:23;;;;;;;77.22;34.13;;;;;;;2.37;53.17;99931.78;3154642;28;20052;-68
2021/12/24 08:17:55;;;;;;;73.60;34.28;;;;;;;2.43;53.00;99930.00;3154208;28;20186;-68
2021/12/24 08:19:29;;;;;;;78.90;34.25;;;;;;;2.48;53.05;99925.69;3157364;28;20067;-68
2021/12/24 08:21:02;;;;;;;77.95;33.75;;;;;;;2.55;52.89;99912.75;3154590;28;20428;-67
2021/12/24 08:22:34;;;;;;;70.35;34.38;;;;;;;2.58;52.75;99908.44;3157069;28;20531;-69